Overview Statistics Trail Chart Weather Telemetry Raw packets
 

This is the latest recevied weather packets stored in our database for station/object DO1BDB-12. If no packets are shown the sender has not sent any weather packets the latest 10 day(s).

<< 509 510 511 512 513 514 515 >>
Time Temp. Humidity Pressure Rain* Wind** Luminosity Snow
1787733611 22.22° C 49% 102.2 hPa - - - -
1787733545 21.67° C 49% 102.2 hPa - - - -
1787733479 22.78° C 47% 102.2 hPa - - - -
1787733413 22.22° C 49% 102.2 hPa - - - -
1787733347 22.22° C 49% 102.2 hPa - - - -
1787733282 22.78° C 47% 102.2 hPa - - - -
1787733216 22.78° C 47% 102.2 hPa - - - -
1787733150 23.33° C 45% 102.2 hPa - - - -
1787733084 27.78° C 38% 102.2 hPa - - - -
1787733018 27.78° C 38% 102.2 hPa - - - -
1787732952 27.22° C 39% 102.2 hPa - - - -
1787732886 27.22° C 40% 102.2 hPa - - - -
1787732821 26.11° C 42% 102.2 hPa - - - -
1787732755 25.56° C 42% 102.2 hPa - - - -
1787732689 25° C 42% 102.2 hPa - - - -
1787732623 24.44° C 44% 102.2 hPa - - - -
1787732557 24.44° C 43% 102.2 hPa - - - -
1787732491 23.89° C 44% 102.2 hPa - - - -
1787732426 24.44° C 45% 102.2 hPa - - - -
1787732360 25° C 43% 102.2 hPa - - - -
1787732294 25° C 44% 102.2 hPa - - - -
1787732228 24.44° C 46% 102.2 hPa - - - -
1787732162 22.78° C 48% 102.2 hPa - - - -
1787732096 23.89° C 46% 102.2 hPa - - - -
1787732030 24.44° C 45% 102.2 hPa - - - -

* Rain since midnight (hover to see other rain measurements)
** Current wind speed in m/s (hover to see current wind gust speed)